KDHN

Dothan Regional Airport

Airport
ICAO code
KDHN
Summary
ICAO Region
NAM
ICAO Territory
Location

Dothan, Alabama,

Elevation
401 ft
Coordinates
31° 19' 16" N , 85° 26' 58" W
KCC
Airport WX
Cumulonimbus
Metar
Observation
KDHN 061553Z 05007KT 10SM CLR 17/08 A3029 RMK AO2 SLP253 T01670083
Station
Dothan, Dothan Regional Airport
Date/Time
2023-02-06 15:53:00
Wind direction
50°
Wind speed
07 kts
Lowest cloud amount
n/a
Temperature
16.7°C
Dew point
8.3°C
Humidity
57%
Weather condition
n/a

Description

Regional airport serving the city of Dothan and south eastern Alabama, USA.

Climatology

Humid “subtropical” climate (Köppen climate classification Cfa) - characterized by hot, humid summers and cool winters. Significant amounts of precipitation occur in all seasons in most areas. Winter rainfall (and sometimes snowfall) is associated with large storms that the westerlies steer from west to east. Most summer rainfall occurs during thunderstorms and occasional tropical storms (hurricanes).

Airport map

Aerial View

SKYbrary Partners:

Safety knowledge contributed by: